createdAt,value
2019-01-18T00:02:10.261Z,60.05
2019-01-18T00:06:14.937Z,60.14
2019-01-18T00:10:19.613Z,59.74
2019-01-18T00:14:24.286Z,58.90
2019-01-18T00:18:29.339Z,58.44
2019-01-18T00:22:34.004Z,58.61
2019-01-18T00:26:38.675Z,58.34
2019-01-18T00:30:43.353Z,58.76
2019-01-18T00:34:48.030Z,59.08
2019-01-18T00:38:52.711Z,59.17
2019-01-18T00:42:57.370Z,59.42
2019-01-18T00:47:02.043Z,59.42
2019-01-18T00:51:06.724Z,59.67
2019-01-18T00:55:12.133Z,59.62
2019-01-18T00:59:16.799Z,59.70
2019-01-18T01:03:21.477Z,60.13
2019-01-18T01:07:26.149Z,60.57
2019-01-18T01:11:30.838Z,60.73
2019-01-18T01:15:35.510Z,60.81
2019-01-18T01:19:40.182Z,60.71
2019-01-18T01:23:44.869Z,60.60
2019-01-18T01:27:49.709Z,60.57
2019-01-18T01:31:54.379Z,60.83
2019-01-18T01:36:00.029Z,60.81
2019-01-18T01:40:08.200Z,60.79
2019-01-18T01:44:12.881Z,60.77
2019-01-18T01:48:17.556Z,60.82
2019-01-18T01:52:22.229Z,60.79
2019-01-18T01:56:26.900Z,60.78
2019-01-18T02:00:31.570Z,60.82
2019-01-18T02:04:36.314Z,60.55
2019-01-18T02:08:40.996Z,61.93
2019-01-18T02:12:45.674Z,60.88
2019-01-18T02:16:51.417Z,61.19
2019-01-18T02:20:56.089Z,61.33
2019-01-18T02:25:00.769Z,61.11
2019-01-18T02:29:05.449Z,61.11
2019-01-18T02:33:10.121Z,60.97
2019-01-18T02:37:14.798Z,61.02
2019-01-18T02:41:19.463Z,60.89
2019-01-18T02:45:24.140Z,61.19
2019-01-18T02:49:28.815Z,61.40
2019-01-18T02:53:33.486Z,61.36
2019-01-18T02:57:38.172Z,61.19
2019-01-18T03:01:42.836Z,60.86
2019-01-18T03:05:47.514Z,60.66
2019-01-18T03:09:52.191Z,60.61
2019-01-18T03:13:56.865Z,60.60
2019-01-18T03:18:01.543Z,60.59
2019-01-18T03:22:06.210Z,60.80
2019-01-18T03:26:10.892Z,60.99
2019-01-18T03:30:20.079Z,61.22
2019-01-18T03:34:23.776Z,61.31
2019-01-18T03:38:28.451Z,61.30
2019-01-18T03:42:33.128Z,61.28
2019-01-18T03:46:37.792Z,61.57
2019-01-18T03:50:42.475Z,61.99
2019-01-18T03:54:47.150Z,62.13
2019-01-18T03:58:51.833Z,62.36
2019-01-18T04:02:56.503Z,62.65
2019-01-18T04:07:01.182Z,62.98
2019-01-18T04:11:05.865Z,63.00
2019-01-18T04:15:12.779Z,62.97
2019-01-18T04:19:17.463Z,63.05
2019-01-18T04:23:22.215Z,63.17
2019-01-18T04:27:26.891Z,63.52
2019-01-18T04:31:31.577Z,63.70
2019-01-18T04:35:36.255Z,63.43
2019-01-18T04:39:40.923Z,63.16
2019-01-18T04:43:45.595Z,62.82
2019-01-18T04:47:50.273Z,62.50
2019-01-18T04:51:54.949Z,62.42
2019-01-18T04:55:59.627Z,62.40
2019-01-18T05:00:07.556Z,62.33
2019-01-18T05:04:12.509Z,62.32
2019-01-18T05:08:17.185Z,62.42
2019-01-18T05:12:21.869Z,62.45
2019-01-18T05:16:26.553Z,62.30
2019-01-18T05:20:31.219Z,61.83
2019-01-18T05:24:35.905Z,61.48
2019-01-18T05:28:40.574Z,61.51
2019-01-18T05:32:45.251Z,61.47
2019-01-18T05:36:49.915Z,61.11
2019-01-18T05:40:54.601Z,61.05
2019-01-18T05:44:59.274Z,60.95
2019-01-18T05:49:03.954Z,61.08
2019-01-18T05:53:09.404Z,61.25
2019-01-18T05:57:14.084Z,61.45
2019-01-18T06:01:18.756Z,61.72
2019-01-18T06:05:23.505Z,62.02
2019-01-18T06:09:28.193Z,62.37
2019-01-18T06:13:32.882Z,62.65
2019-01-18T06:17:37.553Z,62.80
2019-01-18T06:21:42.235Z,62.91
2019-01-18T06:25:46.918Z,63.31
2019-01-18T06:29:51.600Z,63.63
2019-01-18T06:33:56.336Z,63.60
2019-01-18T06:38:00.972Z,63.78
2019-01-18T06:42:05.656Z,63.86
2019-01-18T06:46:10.616Z,63.90
2019-01-18T06:50:17.239Z,63.79
2019-01-18T06:54:21.914Z,63.78
2019-01-18T06:58:26.609Z,65.47
2019-01-18T07:02:31.296Z,64.07
2019-01-18T07:06:35.981Z,63.54
2019-01-18T07:10:40.655Z,63.11
2019-01-18T07:14:45.342Z,62.98
2019-01-18T07:18:50.046Z,63.05
2019-01-18T07:22:54.734Z,63.54
2019-01-18T07:26:59.442Z,63.24
2019-01-18T07:31:04.141Z,63.16
2019-01-18T07:35:09.113Z,63.00
2019-01-18T07:39:13.806Z,62.84
2019-01-18T07:43:18.501Z,62.69
2019-01-18T07:47:23.192Z,62.76
2019-01-18T07:51:27.877Z,62.79
2019-01-18T07:55:32.827Z,62.76
2019-01-18T07:59:37.503Z,63.75
2019-01-18T08:03:42.198Z,63.04
2019-01-18T08:07:46.897Z,62.65
2019-01-18T08:11:52.568Z,62.68
2019-01-18T08:15:57.251Z,62.80
2019-01-18T08:20:01.946Z,63.74
2019-01-18T08:24:06.633Z,63.72
2019-01-18T08:28:11.325Z,63.22
2019-01-18T08:32:15.989Z,62.78
2019-01-18T08:36:20.679Z,62.39
2019-01-18T08:40:30.949Z,61.59
2019-01-18T08:44:35.633Z,61.17
2019-01-18T08:48:40.320Z,61.02
2019-01-18T08:52:45.000Z,60.82
2019-01-18T08:56:49.689Z,60.80
2019-01-18T09:00:54.383Z,60.48
2019-01-18T09:04:59.064Z,60.28
2019-01-18T09:09:05.618Z,60.03
2019-01-18T09:13:10.297Z,59.53
2019-01-18T09:17:14.979Z,59.41
2019-01-18T09:21:19.655Z,59.24
2019-01-18T09:25:24.344Z,59.16
2019-01-18T09:29:29.030Z,58.78
2019-01-18T09:33:33.697Z,58.46
2019-01-18T09:37:38.392Z,58.31
2019-01-18T09:41:44.170Z,58.06
2019-01-18T09:45:48.955Z,57.45
2019-01-18T09:49:53.644Z,57.33
2019-01-18T09:53:58.317Z,56.76
2019-01-18T09:58:03.002Z,56.89
2019-01-18T10:02:07.676Z,56.85
2019-01-18T10:06:12.366Z,57.00
2019-01-18T10:10:21.708Z,56.92
2019-01-18T10:14:26.367Z,56.40
2019-01-18T10:18:31.037Z,54.84
2019-01-18T10:22:35.715Z,53.92
2019-01-18T10:26:40.391Z,53.81
2019-01-18T10:30:45.084Z,53.82
2019-01-18T10:34:49.757Z,53.38
2019-01-18T10:38:54.445Z,53.74
2019-01-18T10:42:59.128Z,53.92
2019-01-18T10:47:03.812Z,54.03
2019-01-18T10:51:08.490Z,54.62
2019-01-18T10:55:13.169Z,54.99
2019-01-18T10:59:17.855Z,55.14
2019-01-18T11:03:22.525Z,55.17
2019-01-18T11:07:27.197Z,54.92
2019-01-18T11:11:31.888Z,54.72
2019-01-18T11:15:36.566Z,55.16
2019-01-18T11:19:41.246Z,54.94
2019-01-18T11:23:46.895Z,54.43
2019-01-18T11:27:51.579Z,53.89
2019-01-18T11:31:56.263Z,53.30
2019-01-18T11:36:00.926Z,53.04
2019-01-18T11:40:08.865Z,52.82
2019-01-18T11:44:13.552Z,51.82
2019-01-18T11:48:18.238Z,51.40
2019-01-18T11:52:22.909Z,50.33
2019-01-18T11:56:27.592Z,49.94
2019-01-18T12:00:37.737Z,49.56
2019-01-18T12:04:38.645Z,49.28
2019-01-18T12:08:43.323Z,49.40
2019-01-18T12:12:47.992Z,49.49
2019-01-18T12:16:52.674Z,49.36
2019-01-18T12:20:58.723Z,49.15
2019-01-18T12:25:03.479Z,48.18
2019-01-18T12:29:08.158Z,47.93
2019-01-18T12:33:12.838Z,48.27
2019-01-18T12:37:17.512Z,48.02
2019-01-18T12:41:22.196Z,47.88
2019-01-18T12:45:26.883Z,47.70
2019-01-18T12:49:31.565Z,47.42
2019-01-18T12:53:36.250Z,46.84
2019-01-18T12:57:40.917Z,46.68
2019-01-18T13:01:45.594Z,47.05
2019-01-18T13:05:50.266Z,46.87
2019-01-18T13:09:54.952Z,46.93
2019-01-18T13:13:59.644Z,46.85
2019-01-18T13:18:04.400Z,46.40
2019-01-18T13:22:09.074Z,46.10
2019-01-18T13:26:13.751Z,45.91
2019-01-18T13:30:19.172Z,46.07
2019-01-18T13:34:23.854Z,46.31
2019-01-18T13:38:28.522Z,45.80
2019-01-18T13:42:33.206Z,45.48
2019-01-18T13:46:38.853Z,45.69
2019-01-18T13:50:43.525Z,45.96
2019-01-18T13:54:48.191Z,45.91
2019-01-18T13:58:52.879Z,46.23
2019-01-18T14:02:57.566Z,46.68
2019-01-18T14:07:02.247Z,47.05
2019-01-18T14:11:08.093Z,47.00
2019-01-18T14:15:17.993Z,47.54
2019-01-18T14:19:22.676Z,47.87
2019-01-18T14:23:27.368Z,48.77
2019-01-18T14:27:32.042Z,49.17
2019-01-18T14:31:36.733Z,48.90
2019-01-18T14:35:42.370Z,49.21
2019-01-18T14:39:47.048Z,49.74
2019-01-18T14:43:51.739Z,49.77
2019-01-18T14:47:56.417Z,49.98
2019-01-18T14:52:01.093Z,50.89
2019-01-18T14:56:05.773Z,50.54
2019-01-18T15:00:19.538Z,50.86
2019-01-18T15:04:25.194Z,51.06
2019-01-18T15:08:29.872Z,51.01
2019-01-18T15:12:35.372Z,50.80
2019-01-18T15:16:40.041Z,50.51
2019-01-18T15:20:44.716Z,50.36
2019-01-18T15:24:49.391Z,50.14
2019-01-18T15:28:54.071Z,50.27
2019-01-18T15:32:58.750Z,50.50
2019-01-18T15:37:03.417Z,50.68
2019-01-18T15:41:08.089Z,51.01
2019-01-18T15:45:12.762Z,51.22
2019-01-18T15:49:17.448Z,51.32
2019-01-18T15:53:22.130Z,51.47
2019-01-18T15:57:26.810Z,51.77
2019-01-18T16:01:31.498Z,52.22
2019-01-18T16:05:36.195Z,52.52
2019-01-18T16:09:40.863Z,52.53
2019-01-18T16:13:45.542Z,52.59
2019-01-18T16:17:50.386Z,52.95
2019-01-18T16:21:55.066Z,53.04
2019-01-18T16:25:59.742Z,53.48
2019-01-18T16:30:07.681Z,53.64
2019-01-18T16:34:12.363Z,53.90
2019-01-18T16:38:18.022Z,54.31
2019-01-18T16:42:22.705Z,54.75
2019-01-18T16:46:27.390Z,54.98
2019-01-18T16:50:32.075Z,55.12
2019-01-18T16:54:36.756Z,54.94
2019-01-18T16:58:41.473Z,55.25
2019-01-18T17:02:46.122Z,55.82
2019-01-18T17:06:50.794Z,56.14
2019-01-18T17:10:55.471Z,56.00
2019-01-18T17:15:00.176Z,56.18
2019-01-18T17:19:04.865Z,56.89
2019-01-18T17:23:09.545Z,57.25
2019-01-18T17:27:14.230Z,57.10
2019-01-18T17:31:18.923Z,57.54
2019-01-18T17:35:51.012Z,57.57
2019-01-18T17:39:55.774Z,57.67
2019-01-18T17:44:30.814Z,57.28
2019-01-18T17:48:47.592Z,57.46
2019-01-18T17:52:55.533Z,57.20
2019-01-18T17:57:06.661Z,57.27
2019-01-18T18:01:14.608Z,57.26
2019-01-18T18:05:26.439Z,57.28
2019-01-18T18:09:37.291Z,57.34
2019-01-18T18:13:51.573Z,57.43
2019-01-18T18:18:17.724Z,57.49
2019-01-18T18:22:54.583Z,57.46
2019-01-18T18:27:35.711Z,57.20
2019-01-18T18:32:00.277Z,57.15
2019-01-18T18:36:26.392Z,57.20
2019-01-18T18:40:37.448Z,57.02
2019-01-18T18:45:07.915Z,57.17
2019-01-18T18:49:18.631Z,57.22
2019-01-18T18:53:29.387Z,57.13
2019-01-18T18:57:51.790Z,57.09
2019-01-18T19:02:02.852Z,57.24
2019-01-18T19:06:13.566Z,58.59
2019-01-18T19:10:42.670Z,58.23
2019-01-18T19:14:53.279Z,57.97
2019-01-18T19:19:10.416Z,57.97
2019-01-18T19:23:18.359Z,57.69
2019-01-18T19:27:35.104Z,57.50
2019-01-18T19:31:49.002Z,57.19
2019-01-18T19:36:11.613Z,57.39
2019-01-18T19:40:22.264Z,57.51
2019-01-18T19:44:44.815Z,57.86
2019-01-18T19:48:58.383Z,57.69
2019-01-18T19:53:12.011Z,58.10
2019-01-18T19:57:22.639Z,58.13
2019-01-18T20:01:42.844Z,58.32
2019-01-18T20:05:53.759Z,58.42
2019-01-18T20:10:08.355Z,58.60
2019-01-18T20:14:25.076Z,58.58
2019-01-18T20:18:33.025Z,58.75
2019-01-18T20:22:46.564Z,58.60
2019-01-18T20:27:03.199Z,58.39
2019-01-18T20:31:11.164Z,58.38
2019-01-18T20:35:36.927Z,58.43
2019-01-18T20:39:47.425Z,58.07
2019-01-18T20:44:13.600Z,58.55
2019-01-18T20:48:37.742Z,58.45
2019-01-18T20:53:12.556Z,58.29
2019-01-18T20:57:38.431Z,58.63
2019-01-18T21:02:01.170Z,58.85
2019-01-18T21:06:17.873Z,58.69
2019-01-18T21:10:40.801Z,58.60
2019-01-18T21:15:06.876Z,58.65
2019-01-18T21:19:38.188Z,58.78
2019-01-18T21:23:48.710Z,58.84
2019-01-18T21:28:02.592Z,58.83
2019-01-18T21:32:28.558Z,58.87
2019-01-18T21:36:56.044Z,58.98
2019-01-18T21:41:12.977Z,59.18
2019-01-18T21:45:41.998Z,59.22
2019-01-18T21:49:55.016Z,59.00
2019-01-18T21:54:08.665Z,58.76
2019-01-18T21:58:31.726Z,58.91
2019-01-18T22:02:56.170Z,58.75
2019-01-18T22:07:16.109Z,59.02
2019-01-18T22:11:49.854Z,58.85
2019-01-18T22:16:15.663Z,59.20
2019-01-18T22:20:41.482Z,59.15
2019-01-18T22:24:52.376Z,59.13
2019-01-18T22:29:24.230Z,58.89
2019-01-18T22:33:50.216Z,59.20
2019-01-18T22:38:19.278Z,59.17
2019-01-18T22:42:29.842Z,59.53
2019-01-18T22:46:54.498Z,59.29
2019-01-18T22:51:02.453Z,59.27
2019-01-18T22:55:19.126Z,59.23
2019-01-18T22:59:51.307Z,59.13
2019-01-18T23:03:59.264Z,59.38
2019-01-18T23:08:16.317Z,59.25
2019-01-18T23:12:39.288Z,58.82
2019-01-18T23:17:02.104Z,59.08
2019-01-18T23:21:10.108Z,58.78
2019-01-18T23:25:20.684Z,59.04
2019-01-18T23:29:40.525Z,59.32
2019-01-18T23:33:48.485Z,59.47
2019-01-18T23:38:08.368Z,59.51
2019-01-18T23:42:12.121Z,59.92
2019-01-18T23:46:35.875Z,60.23
2019-01-18T23:50:49.669Z,60.38
2019-01-18T23:55:00.200Z,60.41
2019-01-18T23:59:11.114Z,60.37
